createdAt,value
2022-10-11T00:00:01.977Z,94
2022-10-11T00:15:59.489Z,94
2022-10-11T00:31:01.865Z,94
2022-10-11T00:46:04.211Z,94
2022-10-11T01:00:00.823Z,94
2022-10-11T01:16:03.535Z,94
2022-10-11T01:31:00.320Z,94
2022-10-11T01:46:03.010Z,95
2022-10-11T01:59:59.783Z,95
2022-10-11T02:16:02.694Z,95
2022-10-11T02:30:59.628Z,95
2022-10-11T02:46:02.579Z,95
2022-10-11T03:00:04.219Z,95
2022-10-11T03:16:03.551Z,95
2022-10-11T03:31:03.561Z,95
2022-10-11T03:46:00.478Z,95
2022-10-11T04:00:02.578Z,95
2022-10-11T04:16:00.025Z,95
2022-10-11T04:31:02.256Z,96
2022-10-11T04:46:04.737Z,96
2022-10-11T05:00:01.431Z,96
2022-10-11T05:16:08.234Z,96
2022-10-11T05:31:01.193Z,96
2022-10-11T05:46:03.657Z,96
2022-10-11T06:00:00.373Z,96
2022-10-11T06:16:03.252Z,96
2022-10-11T06:31:00.025Z,96
2022-10-11T06:46:03.363Z,96
2022-10-11T07:00:05.566Z,96
2022-10-11T07:16:01.976Z,96
2022-10-11T07:31:03.877Z,96
2022-10-11T07:46:01.005Z,96
2022-10-11T08:00:03.171Z,96
2022-10-11T08:16:00.559Z,96
2022-10-11T08:31:02.861Z,94
2022-10-11T08:46:00.205Z,90
2022-10-11T09:00:02.334Z,81
2022-10-11T09:15:59.780Z,76
2022-10-11T09:31:01.671Z,76
2022-10-11T09:46:04.109Z,75
2022-10-11T10:00:00.790Z,74
2022-10-11T10:16:03.454Z,74
2022-10-11T10:31:00.468Z,74
2022-10-11T10:46:03.005Z,75
2022-10-11T10:59:59.830Z,72
2022-10-11T11:16:02.631Z,71
2022-10-11T11:30:59.425Z,67
2022-10-11T11:46:01.639Z,62
2022-10-11T12:00:03.887Z,63
2022-10-11T12:16:01.294Z,59
2022-10-11T12:31:04.042Z,60
2022-10-11T12:46:00.821Z,55
2022-10-11T13:00:03.183Z,55
2022-10-11T13:16:12.177Z,53
2022-10-11T13:31:02.954Z,52
2022-10-11T13:45:59.818Z,55
2022-10-11T14:00:02.053Z,54
2022-10-11T14:16:04.569Z,52
2022-10-11T14:31:01.736Z,52
2022-10-11T14:46:04.450Z,52
2022-10-11T15:00:00.941Z,51
2022-10-11T15:16:03.600Z,60
2022-10-11T15:31:00.364Z,63
2022-10-11T15:46:03.027Z,64
2022-10-11T15:59:59.690Z,66
2022-10-11T16:16:02.190Z,67
2022-10-11T16:30:59.365Z,70
2022-10-11T16:46:01.695Z,72
2022-10-11T17:00:03.663Z,73
2022-10-11T17:16:01.202Z,75
2022-10-11T17:31:03.514Z,77
2022-10-11T17:46:00.454Z,80
2022-10-11T18:00:02.644Z,81
2022-10-11T18:15:59.964Z,81
2022-10-11T18:31:02.049Z,82
2022-10-11T18:46:05.421Z,81
2022-10-11T19:00:11.744Z,81
2022-10-11T19:16:04.141Z,82
2022-10-11T19:31:00.965Z,83
2022-10-11T19:46:03.390Z,84
2022-10-11T20:00:00.487Z,85
2022-10-11T20:16:02.875Z,86
2022-10-11T20:31:00.153Z,87
2022-10-11T20:46:02.166Z,87
2022-10-11T20:59:59.389Z,88
2022-10-11T21:16:01.767Z,88
2022-10-11T21:31:04.142Z,89
2022-10-11T21:46:01.110Z,90
2022-10-11T22:00:03.083Z,90
2022-10-11T22:16:00.297Z,91
2022-10-11T22:31:02.600Z,91
2022-10-11T22:45:59.774Z,92
2022-10-11T23:00:01.929Z,92
2022-10-11T23:15:59.553Z,92
2022-10-11T23:31:02.377Z,92
2022-10-11T23:46:04.322Z,92
